sensor_id;sensor_type;location;lat;lon;timestamp;P1;durP1;ratioP1;P2;durP2;ratioP2
23884;SDS011;12123;53.088;7.392;2022-09-29T00:02:10;15.73;;;10.40;;
23884;SDS011;12123;53.088;7.392;2022-09-29T00:04:37;15.30;;;10.15;;
23884;SDS011;12123;53.088;7.392;2022-09-29T00:07:04;16.85;;;9.93;;
23884;SDS011;12123;53.088;7.392;2022-09-29T00:09:31;14.38;;;9.27;;
23884;SDS011;12123;53.088;7.392;2022-09-29T00:11:58;16.55;;;10.27;;
23884;SDS011;12123;53.088;7.392;2022-09-29T00:14:26;14.80;;;10.02;;
23884;SDS011;12123;53.088;7.392;2022-09-29T00:16:53;15.07;;;10.02;;
23884;SDS011;12123;53.088;7.392;2022-09-29T00:19:20;17.08;;;10.77;;
23884;SDS011;12123;53.088;7.392;2022-09-29T00:21:48;18.13;;;10.48;;
23884;SDS011;12123;53.088;7.392;2022-09-29T00:24:15;14.85;;;9.77;;
23884;SDS011;12123;53.088;7.392;2022-09-29T00:26:42;13.68;;;9.73;;
23884;SDS011;12123;53.088;7.392;2022-09-29T00:29:11;14.30;;;9.82;;
23884;SDS011;12123;53.088;7.392;2022-09-29T00:31:39;13.73;;;9.25;;
23884;SDS011;12123;53.088;7.392;2022-09-29T00:34:06;14.55;;;9.52;;
23884;SDS011;12123;53.088;7.392;2022-09-29T00:36:33;13.27;;;8.70;;
23884;SDS011;12123;53.088;7.392;2022-09-29T00:39:01;14.00;;;9.13;;
23884;SDS011;12123;53.088;7.392;2022-09-29T00:41:29;14.18;;;9.55;;
23884;SDS011;12123;53.088;7.392;2022-09-29T00:46:49;13.93;;;9.60;;
23884;SDS011;12123;53.088;7.392;2022-09-29T00:52:07;17.40;;;10.00;;
23884;SDS011;12123;53.088;7.392;2022-09-29T00:54:37;15.63;;;9.32;;
23884;SDS011;12123;53.088;7.392;2022-09-29T00:57:05;15.38;;;10.15;;
23884;SDS011;12123;53.088;7.392;2022-09-29T00:59:37;12.73;;;8.65;;
23884;SDS011;12123;53.088;7.392;2022-09-29T01:02:07;15.32;;;9.13;;
23884;SDS011;12123;53.088;7.392;2022-09-29T01:04:34;12.85;;;9.23;;
23884;SDS011;12123;53.088;7.392;2022-09-29T01:07:02;14.27;;;9.68;;
23884;SDS011;12123;53.088;7.392;2022-09-29T01:09:33;12.50;;;8.68;;
23884;SDS011;12123;53.088;7.392;2022-09-29T01:12:00;11.90;;;8.38;;
23884;SDS011;12123;53.088;7.392;2022-09-29T01:14:28;11.70;;;9.00;;
23884;SDS011;12123;53.088;7.392;2022-09-29T01:16:56;15.05;;;9.25;;
23884;SDS011;12123;53.088;7.392;2022-09-29T01:19:33;10.93;;;8.13;;
23884;SDS011;12123;53.088;7.392;2022-09-29T01:35:49;12.32;;;8.07;;
23884;SDS011;12123;53.088;7.392;2022-09-29T01:43:07;10.77;;;8.05;;
23884;SDS011;12123;53.088;7.392;2022-09-29T01:45:36;11.23;;;8.25;;
23884;SDS011;12123;53.088;7.392;2022-09-29T01:48:05;14.48;;;8.23;;
23884;SDS011;12123;53.088;7.392;2022-09-29T01:50:55;10.52;;;7.35;;
23884;SDS011;12123;53.088;7.392;2022-09-29T01:53:27;13.25;;;8.48;;
23884;SDS011;12123;53.088;7.392;2022-09-29T01:55:57;9.98;;;7.97;;
23884;SDS011;12123;53.088;7.392;2022-09-29T01:58:35;9.70;;;7.78;;
23884;SDS011;12123;53.088;7.392;2022-09-29T02:01:05;11.35;;;8.38;;
23884;SDS011;12123;53.088;7.392;2022-09-29T02:03:36;9.43;;;7.85;;
23884;SDS011;12123;53.088;7.392;2022-09-29T02:06:08;12.57;;;8.68;;
23884;SDS011;12123;53.088;7.392;2022-09-29T02:08:42;9.70;;;7.60;;
23884;SDS011;12123;53.088;7.392;2022-09-29T02:11:11;14.77;;;7.38;;
23884;SDS011;12123;53.088;7.392;2022-09-29T02:13:44;11.52;;;7.90;;
23884;SDS011;12123;53.088;7.392;2022-09-29T02:16:14;11.52;;;8.10;;
23884;SDS011;12123;53.088;7.392;2022-09-29T02:18:46;15.77;;;8.88;;
23884;SDS011;12123;53.088;7.392;2022-09-29T02:21:14;11.18;;;8.38;;
23884;SDS011;12123;53.088;7.392;2022-09-29T02:23:41;10.55;;;8.00;;
23884;SDS011;12123;53.088;7.392;2022-09-29T02:26:09;12.63;;;9.20;;
23884;SDS011;12123;53.088;7.392;2022-09-29T02:28:37;11.50;;;8.50;;
23884;SDS011;12123;53.088;7.392;2022-09-29T02:31:04;15.25;;;8.65;;
23884;SDS011;12123;53.088;7.392;2022-09-29T02:33:32;16.55;;;8.93;;
23884;SDS011;12123;53.088;7.392;2022-09-29T02:39:14;15.57;;;9.95;;
23884;SDS011;12123;53.088;7.392;2022-09-29T02:46:49;15.65;;;10.75;;
23884;SDS011;12123;53.088;7.392;2022-09-29T02:49:27;16.88;;;10.38;;
23884;SDS011;12123;53.088;7.392;2022-09-29T02:54:38;22.45;;;12.07;;
23884;SDS011;12123;53.088;7.392;2022-09-29T03:02:24;18.88;;;12.48;;
23884;SDS011;12123;53.088;7.392;2022-09-29T03:04:52;20.73;;;13.18;;
23884;SDS011;12123;53.088;7.392;2022-09-29T03:07:19;28.98;;;13.98;;
23884;SDS011;12123;53.088;7.392;2022-09-29T03:09:47;21.92;;;12.27;;
23884;SDS011;12123;53.088;7.392;2022-09-29T03:12:15;17.77;;;12.55;;
23884;SDS011;12123;53.088;7.392;2022-09-29T03:14:43;19.05;;;12.18;;
23884;SDS011;12123;53.088;7.392;2022-09-29T03:17:10;16.83;;;12.38;;
23884;SDS011;12123;53.088;7.392;2022-09-29T03:19:38;17.88;;;11.48;;
23884;SDS011;12123;53.088;7.392;2022-09-29T03:22:05;16.45;;;11.80;;
23884;SDS011;12123;53.088;7.392;2022-09-29T03:24:32;19.70;;;12.88;;
23884;SDS011;12123;53.088;7.392;2022-09-29T03:26:59;19.88;;;12.25;;
23884;SDS011;12123;53.088;7.392;2022-09-29T03:29:26;27.73;;;12.88;;
23884;SDS011;12123;53.088;7.392;2022-09-29T03:31:53;18.70;;;13.18;;
23884;SDS011;12123;53.088;7.392;2022-09-29T03:34:21;17.98;;;12.32;;
23884;SDS011;12123;53.088;7.392;2022-09-29T03:36:48;17.25;;;12.60;;
23884;SDS011;12123;53.088;7.392;2022-09-29T03:39:15;19.42;;;12.90;;
23884;SDS011;12123;53.088;7.392;2022-09-29T03:41:43;18.70;;;13.40;;
23884;SDS011;12123;53.088;7.392;2022-09-29T03:44:10;17.30;;;12.48;;
23884;SDS011;12123;53.088;7.392;2022-09-29T03:46:37;18.23;;;12.75;;
23884;SDS011;12123;53.088;7.392;2022-09-29T03:49:04;23.25;;;13.45;;
23884;SDS011;12123;53.088;7.392;2022-09-29T03:51:32;23.33;;;14.20;;
23884;SDS011;12123;53.088;7.392;2022-09-29T03:53:59;19.58;;;13.68;;
23884;SDS011;12123;53.088;7.392;2022-09-29T03:56:26;20.88;;;14.63;;
23884;SDS011;12123;53.088;7.392;2022-09-29T03:58:53;20.95;;;12.63;;
23884;SDS011;12123;53.088;7.392;2022-09-29T04:01:20;20.40;;;13.60;;
23884;SDS011;12123;53.088;7.392;2022-09-29T04:03:48;20.67;;;14.50;;
23884;SDS011;12123;53.088;7.392;2022-09-29T04:06:15;21.88;;;13.68;;
23884;SDS011;12123;53.088;7.392;2022-09-29T04:08:42;19.95;;;13.73;;
23884;SDS011;12123;53.088;7.392;2022-09-29T04:11:09;25.17;;;13.82;;
23884;SDS011;12123;53.088;7.392;2022-09-29T04:13:36;20.95;;;13.60;;
23884;SDS011;12123;53.088;7.392;2022-09-29T04:16:04;19.83;;;14.30;;
23884;SDS011;12123;53.088;7.392;2022-09-29T04:18:31;18.83;;;12.75;;
23884;SDS011;12123;53.088;7.392;2022-09-29T04:20:59;19.05;;;13.15;;
23884;SDS011;12123;53.088;7.392;2022-09-29T04:23:26;18.10;;;13.00;;
23884;SDS011;12123;53.088;7.392;2022-09-29T04:25:57;18.67;;;12.68;;
23884;SDS011;12123;53.088;7.392;2022-09-29T04:28:24;19.20;;;13.23;;
23884;SDS011;12123;53.088;7.392;2022-09-29T04:30:51;24.95;;;13.48;;
23884;SDS011;12123;53.088;7.392;2022-09-29T04:33:19;17.38;;;12.60;;
23884;SDS011;12123;53.088;7.392;2022-09-29T04:35:46;18.77;;;13.55;;
23884;SDS011;12123;53.088;7.392;2022-09-29T04:38:13;19.67;;;13.98;;
23884;SDS011;12123;53.088;7.392;2022-09-29T04:40:40;20.05;;;13.98;;
23884;SDS011;12123;53.088;7.392;2022-09-29T04:43:07;23.02;;;13.88;;
23884;SDS011;12123;53.088;7.392;2022-09-29T04:45:35;21.75;;;13.65;;
23884;SDS011;12123;53.088;7.392;2022-09-29T04:48:02;18.77;;;13.77;;
23884;SDS011;12123;53.088;7.392;2022-09-29T04:50:29;19.25;;;12.68;;
23884;SDS011;12123;53.088;7.392;2022-09-29T04:52:57;19.30;;;13.30;;
23884;SDS011;12123;53.088;7.392;2022-09-29T04:55:25;30.65;;;14.35;;
23884;SDS011;12123;53.088;7.392;2022-09-29T04:57:52;18.83;;;14.07;;
23884;SDS011;12123;53.088;7.392;2022-09-29T05:00:19;21.00;;;14.43;;
23884;SDS011;12123;53.088;7.392;2022-09-29T05:02:46;18.95;;;13.52;;
23884;SDS011;12123;53.088;7.392;2022-09-29T05:05:15;24.33;;;14.80;;
23884;SDS011;12123;53.088;7.392;2022-09-29T05:07:42;22.98;;;14.82;;
23884;SDS011;12123;53.088;7.392;2022-09-29T05:10:10;21.05;;;14.48;;
23884;SDS011;12123;53.088;7.392;2022-09-29T05:12:38;24.30;;;15.45;;
23884;SDS011;12123;53.088;7.392;2022-09-29T05:15:05;24.00;;;15.70;;
23884;SDS011;12123;53.088;7.392;2022-09-29T05:17:32;23.33;;;15.73;;
23884;SDS011;12123;53.088;7.392;2022-09-29T05:20:00;24.38;;;15.10;;
23884;SDS011;12123;53.088;7.392;2022-09-29T05:22:27;20.67;;;14.55;;
23884;SDS011;12123;53.088;7.392;2022-09-29T05:24:54;20.77;;;14.48;;
23884;SDS011;12123;53.088;7.392;2022-09-29T05:27:21;40.92;;;15.80;;
23884;SDS011;12123;53.088;7.392;2022-09-29T05:29:48;22.85;;;14.32;;
23884;SDS011;12123;53.088;7.392;2022-09-29T05:32:15;22.30;;;14.82;;
23884;SDS011;12123;53.088;7.392;2022-09-29T05:34:43;21.42;;;14.43;;
23884;SDS011;12123;53.088;7.392;2022-09-29T05:37:10;23.42;;;15.07;;
23884;SDS011;12123;53.088;7.392;2022-09-29T05:39:38;21.65;;;14.15;;
23884;SDS011;12123;53.088;7.392;2022-09-29T05:42:06;20.67;;;14.25;;
23884;SDS011;12123;53.088;7.392;2022-09-29T05:44:36;19.40;;;13.60;;
23884;SDS011;12123;53.088;7.392;2022-09-29T05:47:03;21.58;;;15.45;;
23884;SDS011;12123;53.088;7.392;2022-09-29T05:49:30;19.40;;;13.90;;
23884;SDS011;12123;53.088;7.392;2022-09-29T05:51:58;21.65;;;14.82;;
23884;SDS011;12123;53.088;7.392;2022-09-29T05:54:25;24.92;;;14.70;;
23884;SDS011;12123;53.088;7.392;2022-09-29T05:56:53;24.35;;;15.90;;
23884;SDS011;12123;53.088;7.392;2022-09-29T05:59:21;30.75;;;15.95;;
23884;SDS011;12123;53.088;7.392;2022-09-29T06:01:48;21.65;;;15.10;;
23884;SDS011;12123;53.088;7.392;2022-09-29T06:04:15;21.50;;;15.70;;
23884;SDS011;12123;53.088;7.392;2022-09-29T06:06:43;26.13;;;16.65;;
23884;SDS011;12123;53.088;7.392;2022-09-29T06:09:10;32.08;;;17.90;;
23884;SDS011;12123;53.088;7.392;2022-09-29T06:11:37;26.27;;;16.15;;
23884;SDS011;12123;53.088;7.392;2022-09-29T06:14:04;25.02;;;15.35;;
23884;SDS011;12123;53.088;7.392;2022-09-29T06:16:32;23.15;;;15.88;;
23884;SDS011;12123;53.088;7.392;2022-09-29T06:19:00;24.48;;;15.23;;
23884;SDS011;12123;53.088;7.392;2022-09-29T06:21:27;23.23;;;14.88;;
23884;SDS011;12123;53.088;7.392;2022-09-29T06:23:55;23.00;;;15.70;;
23884;SDS011;12123;53.088;7.392;2022-09-29T06:26:23;22.65;;;16.05;;
23884;SDS011;12123;53.088;7.392;2022-09-29T06:28:51;25.98;;;15.40;;
23884;SDS011;12123;53.088;7.392;2022-09-29T06:31:19;22.65;;;15.80;;
23884;SDS011;12123;53.088;7.392;2022-09-29T06:33:47;23.70;;;15.80;;
23884;SDS011;12123;53.088;7.392;2022-09-29T06:36:18;22.98;;;16.65;;
23884;SDS011;12123;53.088;7.392;2022-09-29T06:39:06;22.42;;;15.00;;
23884;SDS011;12123;53.088;7.392;2022-09-29T06:41:33;23.23;;;16.10;;
23884;SDS011;12123;53.088;7.392;2022-09-29T06:44:01;29.60;;;15.18;;
23884;SDS011;12123;53.088;7.392;2022-09-29T06:46:28;23.85;;;14.07;;
23884;SDS011;12123;53.088;7.392;2022-09-29T06:48:56;18.30;;;13.30;;
23884;SDS011;12123;53.088;7.392;2022-09-29T06:51:23;23.58;;;13.25;;
23884;SDS011;12123;53.088;7.392;2022-09-29T06:54:05;20.13;;;13.40;;
23884;SDS011;12123;53.088;7.392;2022-09-29T06:56:37;19.35;;;13.85;;
23884;SDS011;12123;53.088;7.392;2022-09-29T06:59:05;19.23;;;13.98;;
23884;SDS011;12123;53.088;7.392;2022-09-29T07:01:32;24.58;;;14.25;;
23884;SDS011;12123;53.088;7.392;2022-09-29T07:04:00;16.48;;;12.43;;
23884;SDS011;12123;53.088;7.392;2022-09-29T07:06:28;19.95;;;14.18;;
23884;SDS011;12123;53.088;7.392;2022-09-29T07:08:55;20.98;;;14.63;;
23884;SDS011;12123;53.088;7.392;2022-09-29T07:11:24;25.90;;;14.57;;
23884;SDS011;12123;53.088;7.392;2022-09-29T07:13:52;21.42;;;15.75;;
23884;SDS011;12123;53.088;7.392;2022-09-29T07:16:20;26.25;;;16.30;;
23884;SDS011;12123;53.088;7.392;2022-09-29T07:18:51;22.08;;;15.55;;
23884;SDS011;12123;53.088;7.392;2022-09-29T07:21:18;19.95;;;14.85;;
23884;SDS011;12123;53.088;7.392;2022-09-29T07:23:47;20.70;;;13.00;;
23884;SDS011;12123;53.088;7.392;2022-09-29T07:26:15;22.95;;;15.70;;
23884;SDS011;12123;53.088;7.392;2022-09-29T07:28:42;22.73;;;15.98;;
23884;SDS011;12123;53.088;7.392;2022-09-29T07:31:11;22.73;;;15.63;;
23884;SDS011;12123;53.088;7.392;2022-09-29T07:33:44;27.92;;;14.80;;
23884;SDS011;12123;53.088;7.392;2022-09-29T07:36:12;31.80;;;16.40;;
23884;SDS011;12123;53.088;7.392;2022-09-29T07:38:39;24.08;;;16.92;;
23884;SDS011;12123;53.088;7.392;2022-09-29T07:41:07;25.30;;;16.35;;
23884;SDS011;12123;53.088;7.392;2022-09-29T07:43:35;24.40;;;16.65;;
23884;SDS011;12123;53.088;7.392;2022-09-29T07:46:03;35.00;;;16.05;;
23884;SDS011;12123;53.088;7.392;2022-09-29T07:48:31;23.65;;;15.50;;
23884;SDS011;12123;53.088;7.392;2022-09-29T07:53:38;24.65;;;17.02;;
23884;SDS011;12123;53.088;7.392;2022-09-29T07:56:13;23.48;;;16.25;;
23884;SDS011;12123;53.088;7.392;2022-09-29T07:58:41;26.55;;;17.17;;
23884;SDS011;12123;53.088;7.392;2022-09-29T08:01:08;26.38;;;18.63;;
23884;SDS011;12123;53.088;7.392;2022-09-29T08:03:49;32.70;;;18.25;;
23884;SDS011;12123;53.088;7.392;2022-09-29T08:06:17;25.42;;;16.88;;
23884;SDS011;12123;53.088;7.392;2022-09-29T08:08:45;30.23;;;16.20;;
23884;SDS011;12123;53.088;7.392;2022-09-29T08:11:27;24.75;;;17.23;;
23884;SDS011;12123;53.088;7.392;2022-09-29T08:13:57;24.83;;;16.95;;
23884;SDS011;12123;53.088;7.392;2022-09-29T08:16:24;26.83;;;17.00;;
23884;SDS011;12123;53.088;7.392;2022-09-29T08:18:52;28.02;;;18.45;;
23884;SDS011;12123;53.088;7.392;2022-09-29T08:21:19;26.92;;;17.45;;
23884;SDS011;12123;53.088;7.392;2022-09-29T08:23:46;26.30;;;17.75;;
23884;SDS011;12123;53.088;7.392;2022-09-29T08:26:15;27.67;;;18.63;;
23884;SDS011;12123;53.088;7.392;2022-09-29T08:28:43;28.20;;;18.42;;
23884;SDS011;12123;53.088;7.392;2022-09-29T08:31:12;26.85;;;17.58;;
23884;SDS011;12123;53.088;7.392;2022-09-29T08:33:39;24.00;;;16.50;;
23884;SDS011;12123;53.088;7.392;2022-09-29T08:36:07;27.75;;;18.17;;
23884;SDS011;12123;53.088;7.392;2022-09-29T08:38:41;26.48;;;17.13;;
23884;SDS011;12123;53.088;7.392;2022-09-29T08:41:09;26.70;;;17.55;;
23884;SDS011;12123;53.088;7.392;2022-09-29T08:43:41;29.58;;;19.25;;
23884;SDS011;12123;53.088;7.392;2022-09-29T08:46:10;27.88;;;19.00;;
23884;SDS011;12123;53.088;7.392;2022-09-29T08:49:02;23.55;;;17.02;;
23884;SDS011;12123;53.088;7.392;2022-09-29T08:51:42;25.73;;;18.10;;
23884;SDS011;12123;53.088;7.392;2022-09-29T08:54:21;29.35;;;19.27;;
23884;SDS011;12123;53.088;7.392;2022-09-29T08:57:03;26.20;;;17.10;;
23884;SDS011;12123;53.088;7.392;2022-09-29T08:59:31;25.65;;;18.00;;
23884;SDS011;12123;53.088;7.392;2022-09-29T09:09:53;23.27;;;15.82;;
23884;SDS011;12123;53.088;7.392;2022-09-29T09:22:58;24.35;;;15.35;;
23884;SDS011;12123;53.088;7.392;2022-09-29T09:28:03;23.38;;;16.02;;
23884;SDS011;12123;53.088;7.392;2022-09-29T09:30:36;27.58;;;16.38;;
23884;SDS011;12123;53.088;7.392;2022-09-29T09:33:07;18.35;;;14.25;;
23884;SDS011;12123;53.088;7.392;2022-09-29T09:35:54;18.65;;;13.27;;
23884;SDS011;12123;53.088;7.392;2022-09-29T09:38:26;17.60;;;12.65;;
23884;SDS011;12123;53.088;7.392;2022-09-29T09:40:55;17.13;;;13.10;;
23884;SDS011;12123;53.088;7.392;2022-09-29T09:43:28;17.17;;;13.02;;
23884;SDS011;12123;53.088;7.392;2022-09-29T09:53:53;14.60;;;11.55;;
23884;SDS011;12123;53.088;7.392;2022-09-29T09:56:35;14.70;;;11.32;;
23884;SDS011;12123;53.088;7.392;2022-09-29T09:59:47;13.23;;;10.32;;
23884;SDS011;12123;53.088;7.392;2022-09-29T10:02:03;13.88;;;10.23;;
23884;SDS011;12123;53.088;7.392;2022-09-29T10:04:30;12.23;;;9.60;;
23884;SDS011;12123;53.088;7.392;2022-09-29T10:06:59;12.65;;;9.23;;
23884;SDS011;12123;53.088;7.392;2022-09-29T10:09:26;11.50;;;9.25;;
23884;SDS011;12123;53.088;7.392;2022-09-29T10:11:54;14.95;;;10.23;;
23884;SDS011;12123;53.088;7.392;2022-09-29T10:14:24;12.10;;;7.57;;
23884;SDS011;12123;53.088;7.392;2022-09-29T10:17:02;16.48;;;9.45;;
23884;SDS011;12123;53.088;7.392;2022-09-29T10:22:18;13.18;;;10.23;;
23884;SDS011;12123;53.088;7.392;2022-09-29T10:24:51;14.40;;;8.63;;
23884;SDS011;12123;53.088;7.392;2022-09-29T10:27:22;11.88;;;8.13;;
23884;SDS011;12123;53.088;7.392;2022-09-29T10:29:53;8.57;;;7.43;;
23884;SDS011;12123;53.088;7.392;2022-09-29T10:32:24;9.13;;;8.05;;
23884;SDS011;12123;53.088;7.392;2022-09-29T10:35:22;10.02;;;8.18;;
23884;SDS011;12123;53.088;7.392;2022-09-29T10:38:15;11.38;;;8.23;;
23884;SDS011;12123;53.088;7.392;2022-09-29T10:40:52;9.77;;;7.93;;
23884;SDS011;12123;53.088;7.392;2022-09-29T10:43:30;9.85;;;7.40;;
23884;SDS011;12123;53.088;7.392;2022-09-29T10:45:57;9.02;;;6.65;;
23884;SDS011;12123;53.088;7.392;2022-09-29T10:48:25;10.32;;;7.28;;
23884;SDS011;12123;53.088;7.392;2022-09-29T10:50:57;8.00;;;6.65;;
23884;SDS011;12123;53.088;7.392;2022-09-29T10:53:32;9.30;;;6.80;;
23884;SDS011;12123;53.088;7.392;2022-09-29T10:58:31;8.05;;;6.78;;
23884;SDS011;12123;53.088;7.392;2022-09-29T11:01:19;9.18;;;6.43;;
23884;SDS011;12123;53.088;7.392;2022-09-29T11:06:23;7.35;;;6.43;;
23884;SDS011;12123;53.088;7.392;2022-09-29T11:11:24;10.68;;;6.25;;
23884;SDS011;12123;53.088;7.392;2022-09-29T11:13:52;8.55;;;6.18;;
23884;SDS011;12123;53.088;7.392;2022-09-29T11:16:24;10.50;;;6.32;;
23884;SDS011;12123;53.088;7.392;2022-09-29T11:18:53;7.28;;;5.75;;
23884;SDS011;12123;53.088;7.392;2022-09-29T11:21:46;7.47;;;5.97;;
23884;SDS011;12123;53.088;7.392;2022-09-29T11:37:13;4.47;;;3.97;;
23884;SDS011;12123;53.088;7.392;2022-09-29T11:45:00;5.07;;;3.53;;
23884;SDS011;12123;53.088;7.392;2022-09-29T11:53:22;6.45;;;3.92;;
23884;SDS011;12123;53.088;7.392;2022-09-29T12:00:59;4.07;;;3.10;;
23884;SDS011;12123;53.088;7.392;2022-09-29T12:14:18;7.18;;;2.78;;
23884;SDS011;12123;53.088;7.392;2022-09-29T12:16:51;7.60;;;3.80;;
23884;SDS011;12123;53.088;7.392;2022-09-29T12:19:21;4.70;;;3.13;;
23884;SDS011;12123;53.088;7.392;2022-09-29T12:21:50;7.18;;;3.10;;
23884;SDS011;12123;53.088;7.392;2022-09-29T12:24:20;5.25;;;3.67;;
23884;SDS011;12123;53.088;7.392;2022-09-29T12:26:48;5.63;;;3.13;;
23884;SDS011;12123;53.088;7.392;2022-09-29T12:32:04;5.65;;;3.42;;
23884;SDS011;12123;53.088;7.392;2022-09-29T12:37:11;5.72;;;2.47;;
23884;SDS011;12123;53.088;7.392;2022-09-29T12:39:40;4.65;;;2.80;;
23884;SDS011;12123;53.088;7.392;2022-09-29T12:50:43;3.35;;;2.05;;
23884;SDS011;12123;53.088;7.392;2022-09-29T12:53:30;1.90;;;1.73;;
23884;SDS011;12123;53.088;7.392;2022-09-29T12:56:08;4.50;;;1.95;;
23884;SDS011;12123;53.088;7.392;2022-09-29T13:01:25;5.47;;;1.80;;
23884;SDS011;12123;53.088;7.392;2022-09-29T13:25:43;2.90;;;1.10;;
23884;SDS011;12123;53.088;7.392;2022-09-29T13:30:51;2.92;;;1.27;;
23884;SDS011;12123;53.088;7.392;2022-09-29T13:33:20;2.88;;;0.93;;
23884;SDS011;12123;53.088;7.392;2022-09-29T13:35:49;1.88;;;1.25;;
23884;SDS011;12123;53.088;7.392;2022-09-29T13:43:37;1.60;;;1.10;;
23884;SDS011;12123;53.088;7.392;2022-09-29T13:46:24;4.60;;;1.25;;
23884;SDS011;12123;53.088;7.392;2022-09-29T13:49:14;1.80;;;1.27;;
23884;SDS011;12123;53.088;7.392;2022-09-29T13:54:38;1.98;;;1.35;;
23884;SDS011;12123;53.088;7.392;2022-09-29T13:59:42;1.92;;;1.20;;
23884;SDS011;12123;53.088;7.392;2022-09-29T14:02:17;2.00;;;1.00;;
23884;SDS011;12123;53.088;7.392;2022-09-29T14:04:50;2.72;;;1.02;;
23884;SDS011;12123;53.088;7.392;2022-09-29T14:07:37;1.65;;;1.05;;
23884;SDS011;12123;53.088;7.392;2022-09-29T14:10:52;6.47;;;1.55;;
23884;SDS011;12123;53.088;7.392;2022-09-29T14:12:58;3.92;;;1.27;;
23884;SDS011;12123;53.088;7.392;2022-09-29T14:15:27;2.33;;;1.10;;
23884;SDS011;12123;53.088;7.392;2022-09-29T14:18:00;4.57;;;1.25;;
23884;SDS011;12123;53.088;7.392;2022-09-29T14:20:30;2.63;;;1.15;;
23884;SDS011;12123;53.088;7.392;2022-09-29T14:23:07;1.48;;;1.00;;
23884;SDS011;12123;53.088;7.392;2022-09-29T14:28:08;2.10;;;0.90;;
23884;SDS011;12123;53.088;7.392;2022-09-29T14:35:39;2.30;;;1.02;;
23884;SDS011;12123;53.088;7.392;2022-09-29T14:38:09;3.20;;;1.45;;
23884;SDS011;12123;53.088;7.392;2022-09-29T14:40:55;2.67;;;1.42;;
23884;SDS011;12123;53.088;7.392;2022-09-29T14:43:42;7.25;;;1.98;;
23884;SDS011;12123;53.088;7.392;2022-09-29T14:51:53;3.70;;;1.80;;
23884;SDS011;12123;53.088;7.392;2022-09-29T14:57:00;4.75;;;2.08;;
23884;SDS011;12123;53.088;7.392;2022-09-29T14:59:43;4.82;;;1.20;;
23884;SDS011;12123;53.088;7.392;2022-09-29T15:04:44;4.00;;;1.08;;
23884;SDS011;12123;53.088;7.392;2022-09-29T15:07:12;1.40;;;0.82;;
23884;SDS011;12123;53.088;7.392;2022-09-29T15:09:46;1.17;;;0.60;;
23884;SDS011;12123;53.088;7.392;2022-09-29T15:12:21;1.75;;;0.80;;
23884;SDS011;12123;53.088;7.392;2022-09-29T15:14:48;1.65;;;0.90;;
23884;SDS011;12123;53.088;7.392;2022-09-29T15:17:24;2.08;;;1.10;;
23884;SDS011;12123;53.088;7.392;2022-09-29T15:27:52;1.20;;;1.00;;
23884;SDS011;12123;53.088;7.392;2022-09-29T15:30:20;1.75;;;1.25;;
23884;SDS011;12123;53.088;7.392;2022-09-29T15:32:48;2.13;;;1.40;;
23884;SDS011;12123;53.088;7.392;2022-09-29T15:35:21;4.55;;;1.30;;
23884;SDS011;12123;53.088;7.392;2022-09-29T15:40:16;2.65;;;1.20;;
23884;SDS011;12123;53.088;7.392;2022-09-29T15:42:44;1.90;;;0.90;;
23884;SDS011;12123;53.088;7.392;2022-09-29T15:45:16;1.55;;;1.25;;
23884;SDS011;12123;53.088;7.392;2022-09-29T15:47:44;1.70;;;1.40;;
23884;SDS011;12123;53.088;7.392;2022-09-29T15:50:16;3.40;;;1.13;;
23884;SDS011;12123;53.088;7.392;2022-09-29T15:52:44;2.42;;;1.20;;
23884;SDS011;12123;53.088;7.392;2022-09-29T15:55:13;1.58;;;0.95;;
23884;SDS011;12123;53.088;7.392;2022-09-29T15:57:42;4.75;;;1.20;;
23884;SDS011;12123;53.088;7.392;2022-09-29T16:05:36;2.65;;;1.17;;
23884;SDS011;12123;53.088;7.392;2022-09-29T16:08:17;4.38;;;1.15;;
23884;SDS011;12123;53.088;7.392;2022-09-29T16:10:49;3.17;;;1.10;;
23884;SDS011;12123;53.088;7.392;2022-09-29T16:13:24;1.48;;;1.38;;
23884;SDS011;12123;53.088;7.392;2022-09-29T16:15:56;3.40;;;1.45;;
23884;SDS011;12123;53.088;7.392;2022-09-29T16:18:45;1.92;;;1.23;;
23884;SDS011;12123;53.088;7.392;2022-09-29T16:21:13;4.22;;;2.15;;
23884;SDS011;12123;53.088;7.392;2022-09-29T16:24:27;2.53;;;1.80;;
23884;SDS011;12123;53.088;7.392;2022-09-29T16:26:35;2.28;;;1.70;;
23884;SDS011;12123;53.088;7.392;2022-09-29T16:29:04;2.75;;;1.55;;
23884;SDS011;12123;53.088;7.392;2022-09-29T16:31:33;3.38;;;1.50;;
23884;SDS011;12123;53.088;7.392;2022-09-29T16:34:00;1.92;;;1.50;;
23884;SDS011;12123;53.088;7.392;2022-09-29T16:36:31;1.65;;;1.20;;
23884;SDS011;12123;53.088;7.392;2022-09-29T16:39:02;2.58;;;1.67;;
23884;SDS011;12123;53.088;7.392;2022-09-29T16:41:30;3.50;;;1.98;;
23884;SDS011;12123;53.088;7.392;2022-09-29T16:44:03;2.60;;;1.70;;
23884;SDS011;12123;53.088;7.392;2022-09-29T16:46:32;2.25;;;1.65;;
23884;SDS011;12123;53.088;7.392;2022-09-29T16:49:00;3.35;;;1.70;;
23884;SDS011;12123;53.088;7.392;2022-09-29T16:51:27;1.75;;;1.50;;
23884;SDS011;12123;53.088;7.392;2022-09-29T16:54:13;2.55;;;1.63;;
23884;SDS011;12123;53.088;7.392;2022-09-29T16:56:41;2.90;;;1.70;;
23884;SDS011;12123;53.088;7.392;2022-09-29T16:59:11;2.13;;;1.75;;
23884;SDS011;12123;53.088;7.392;2022-09-29T17:01:41;8.93;;;2.13;;
23884;SDS011;12123;53.088;7.392;2022-09-29T17:04:09;3.67;;;1.83;;
23884;SDS011;12123;53.088;7.392;2022-09-29T17:06:37;4.82;;;2.28;;
23884;SDS011;12123;53.088;7.392;2022-09-29T17:09:04;2.47;;;2.00;;
23884;SDS011;12123;53.088;7.392;2022-09-29T17:11:32;6.00;;;1.95;;
23884;SDS011;12123;53.088;7.392;2022-09-29T17:14:00;2.58;;;1.80;;
23884;SDS011;12123;53.088;7.392;2022-09-29T17:16:27;2.53;;;1.98;;
23884;SDS011;12123;53.088;7.392;2022-09-29T17:18:55;3.55;;;1.48;;
23884;SDS011;12123;53.088;7.392;2022-09-29T17:21:26;2.95;;;1.88;;
23884;SDS011;12123;53.088;7.392;2022-09-29T17:23:57;2.88;;;2.25;;
23884;SDS011;12123;53.088;7.392;2022-09-29T17:26:26;4.97;;;2.45;;
23884;SDS011;12123;53.088;7.392;2022-09-29T17:29:17;4.18;;;2.30;;
23884;SDS011;12123;53.088;7.392;2022-09-29T17:31:44;4.75;;;2.50;;
23884;SDS011;12123;53.088;7.392;2022-09-29T17:34:12;6.97;;;2.55;;
23884;SDS011;12123;53.088;7.392;2022-09-29T17:36:39;3.88;;;2.40;;
23884;SDS011;12123;53.088;7.392;2022-09-29T17:39:07;2.72;;;2.20;;
23884;SDS011;12123;53.088;7.392;2022-09-29T17:41:34;4.18;;;2.42;;
23884;SDS011;12123;53.088;7.392;2022-09-29T17:44:02;3.80;;;2.28;;
23884;SDS011;12123;53.088;7.392;2022-09-29T17:46:31;2.80;;;2.30;;
23884;SDS011;12123;53.088;7.392;2022-09-29T17:48:58;4.00;;;2.38;;
23884;SDS011;12123;53.088;7.392;2022-09-29T17:51:26;3.50;;;2.25;;
23884;SDS011;12123;53.088;7.392;2022-09-29T17:53:53;4.10;;;2.22;;
23884;SDS011;12123;53.088;7.392;2022-09-29T17:56:24;3.88;;;2.35;;
23884;SDS011;12123;53.088;7.392;2022-09-29T17:58:51;5.35;;;2.72;;
23884;SDS011;12123;53.088;7.392;2022-09-29T18:01:20;5.13;;;2.20;;
23884;SDS011;12123;53.088;7.392;2022-09-29T18:03:47;3.60;;;2.45;;
23884;SDS011;12123;53.088;7.392;2022-09-29T18:06:19;6.50;;;2.60;;
23884;SDS011;12123;53.088;7.392;2022-09-29T18:08:47;5.50;;;2.60;;
23884;SDS011;12123;53.088;7.392;2022-09-29T18:11:20;5.22;;;2.85;;
23884;SDS011;12123;53.088;7.392;2022-09-29T18:13:47;3.38;;;2.40;;
23884;SDS011;12123;53.088;7.392;2022-09-29T18:16:16;3.30;;;2.83;;
23884;SDS011;12123;53.088;7.392;2022-09-29T18:18:44;5.22;;;3.03;;
23884;SDS011;12123;53.088;7.392;2022-09-29T18:21:11;3.78;;;2.78;;